sensor_id;sensor_type;location;lat;lon;timestamp;pressure;altitude;pressure_sealevel;temperature;humidity
70458;BME280;57919;56.194;95.716;2023-06-10T00:02:20;98270.03;;;21.36;68.39
70458;BME280;57919;56.194;95.716;2023-06-10T00:12:22;98277.03;;;21.32;68.86
70458;BME280;57919;56.194;95.716;2023-06-10T00:22:24;98301.75;;;21.57;67.93
70458;BME280;57919;56.194;95.716;2023-06-10T00:32:31;98298.63;;;21.53;68.08
70458;BME280;57919;56.194;95.716;2023-06-10T00:42:32;98321.44;;;21.79;67.90
70458;BME280;57919;56.194;95.716;2023-06-10T00:52:35;98346.41;;;21.59;67.39
70458;BME280;57919;56.194;95.716;2023-06-10T01:02:38;98359.34;;;21.77;67.16
70458;BME280;57919;56.194;95.716;2023-06-10T01:13:12;98358.13;;;21.73;66.57
70458;BME280;57919;56.194;95.716;2023-06-10T01:23:15;98367.09;;;21.86;66.11
70458;BME280;57919;56.194;95.716;2023-06-10T01:33:29;98377.75;;;22.19;65.12
70458;BME280;57919;56.194;95.716;2023-06-10T01:43:37;98380.47;;;22.56;64.20
70458;BME280;57919;56.194;95.716;2023-06-10T01:53:39;98390.97;;;22.96;63.29
70458;BME280;57919;56.194;95.716;2023-06-10T02:03:42;98397.75;;;23.23;62.03
70458;BME280;57919;56.194;95.716;2023-06-10T02:13:44;98404.84;;;23.31;61.39
70458;BME280;57919;56.194;95.716;2023-06-10T02:23:46;98411.31;;;23.25;60.82
70458;BME280;57919;56.194;95.716;2023-06-10T02:33:48;98423.06;;;23.20;60.17
70458;BME280;57919;56.194;95.716;2023-06-10T02:43:51;98445.22;;;23.43;59.17
70458;BME280;57919;56.194;95.716;2023-06-10T02:53:53;98435.78;;;23.63;59.04
70458;BME280;57919;56.194;95.716;2023-06-10T03:03:55;98432.31;;;24.02;58.49
70458;BME280;57919;56.194;95.716;2023-06-10T03:13:57;98448.78;;;24.21;57.90
70458;BME280;57919;56.194;95.716;2023-06-10T03:24:02;98446.00;;;23.86;57.74
70458;BME280;57919;56.194;95.716;2023-06-10T03:34:06;98452.00;;;23.59;57.69
70458;BME280;57919;56.194;95.716;2023-06-10T03:44:08;98441.44;;;23.68;57.76
70458;BME280;57919;56.194;95.716;2023-06-10T03:54:10;98434.00;;;24.38;56.40
70458;BME280;57919;56.194;95.716;2023-06-10T04:04:15;98432.31;;;25.34;54.31
70458;BME280;57919;56.194;95.716;2023-06-10T04:14:18;98429.56;;;26.01;52.52
70458;BME280;57919;56.194;95.716;2023-06-10T04:24:20;98436.91;;;25.74;51.89
70458;BME280;57919;56.194;95.716;2023-06-10T04:34:22;98435.97;;;25.06;53.49
70458;BME280;57919;56.194;95.716;2023-06-10T04:44:24;98433.78;;;26.04;51.42
70458;BME280;57919;56.194;95.716;2023-06-10T04:54:26;98435.09;;;26.35;50.73
70458;BME280;57919;56.194;95.716;2023-06-10T05:04:28;98438.47;;;26.59;51.03
70458;BME280;57919;56.194;95.716;2023-06-10T05:14:31;98430.63;;;27.53;48.79
70458;BME280;57919;56.194;95.716;2023-06-10T05:24:32;98426.94;;;29.32;45.25
70458;BME280;57919;56.194;95.716;2023-06-10T05:34:35;98425.16;;;27.31;48.03
70458;BME280;57919;56.194;95.716;2023-06-10T05:44:36;98433.09;;;26.74;49.02
70458;BME280;57919;56.194;95.716;2023-06-10T05:54:38;98432.44;;;26.45;49.47
70458;BME280;57919;56.194;95.716;2023-06-10T06:04:40;98411.53;;;25.82;51.25
70458;BME280;57919;56.194;95.716;2023-06-10T06:14:42;98412.63;;;27.02;49.18
70458;BME280;57919;56.194;95.716;2023-06-10T06:24:44;98407.75;;;27.14;48.50
70458;BME280;57919;56.194;95.716;2023-06-10T06:34:46;98408.53;;;27.37;47.43
70458;BME280;57919;56.194;95.716;2023-06-10T06:44:48;98401.47;;;26.97;48.76
70458;BME280;57919;56.194;95.716;2023-06-10T06:54:50;98407.81;;;27.19;47.55
70458;BME280;57919;56.194;95.716;2023-06-10T07:04:52;98424.44;;;26.70;48.17
70458;BME280;57919;56.194;95.716;2023-06-10T07:14:56;98418.84;;;26.27;49.63
70458;BME280;57919;56.194;95.716;2023-06-10T07:24:58;98397.88;;;25.75;50.00
70458;BME280;57919;56.194;95.716;2023-06-10T07:35:00;98380.16;;;25.77;50.17
70458;BME280;57919;56.194;95.716;2023-06-10T07:45:04;98365.78;;;25.63;50.36
70458;BME280;57919;56.194;95.716;2023-06-10T07:55:07;98347.41;;;25.73;50.73
70458;BME280;57919;56.194;95.716;2023-06-10T08:05:09;98345.81;;;26.38;48.61
70458;BME280;57919;56.194;95.716;2023-06-10T08:15:11;98358.81;;;25.77;50.44
70458;BME280;57919;56.194;95.716;2023-06-10T08:25:12;98358.97;;;25.20;52.36
70458;BME280;57919;56.194;95.716;2023-06-10T08:35:15;98358.59;;;24.43;55.17
70458;BME280;57919;56.194;95.716;2023-06-10T08:45:17;98354.44;;;24.17;55.78
70458;BME280;57919;56.194;95.716;2023-06-10T08:55:27;98339.72;;;23.76;57.44
70458;BME280;57919;56.194;95.716;2023-06-10T09:05:35;98333.69;;;23.33;59.25
70458;BME280;57919;56.194;95.716;2023-06-10T09:15:40;98345.84;;;23.67;58.14
70458;BME280;57919;56.194;95.716;2023-06-10T09:25:43;98361.59;;;23.78;57.33
70458;BME280;57919;56.194;95.716;2023-06-10T09:35:47;98367.94;;;23.67;56.74
70458;BME280;57919;56.194;95.716;2023-06-10T09:45:56;98368.25;;;23.35;56.79
70458;BME280;57919;56.194;95.716;2023-06-10T09:55:58;98378.75;;;23.03;56.83
70458;BME280;57919;56.194;95.716;2023-06-10T10:06:00;98400.66;;;22.68;57.70
70458;BME280;57919;56.194;95.716;2023-06-10T10:16:15;98420.22;;;22.48;57.85
70458;BME280;57919;56.194;95.716;2023-06-10T10:26:18;98394.69;;;22.05;58.11
70458;BME280;57919;56.194;95.716;2023-06-10T10:36:22;98391.88;;;21.86;58.57
70458;BME280;57919;56.194;95.716;2023-06-10T10:46:25;98388.25;;;21.18;60.32
70458;BME280;57919;56.194;95.716;2023-06-10T10:56:27;98415.66;;;20.68;61.88
70458;BME280;57919;56.194;95.716;2023-06-10T11:06:32;98469.66;;;20.36;64.54
70458;BME280;57919;56.194;95.716;2023-06-10T11:16:41;98423.09;;;19.90;65.73
70458;BME280;57919;56.194;95.716;2023-06-10T11:26:44;98435.56;;;19.46;68.60
70458;BME280;57919;56.194;95.716;2023-06-10T11:36:46;98434.50;;;19.21;70.44
70458;BME280;57919;56.194;95.716;2023-06-10T11:46:49;98428.72;;;18.76;72.90
70458;BME280;57919;56.194;95.716;2023-06-10T11:56:57;98456.63;;;18.45;76.62
70458;BME280;57919;56.194;95.716;2023-06-10T12:06:59;98481.97;;;18.19;77.87
70458;BME280;57919;56.194;95.716;2023-06-10T12:17:02;98506.69;;;17.98;77.67
70458;BME280;57919;56.194;95.716;2023-06-10T12:27:04;98516.44;;;18.07;77.43
70458;BME280;57919;56.194;95.716;2023-06-10T12:37:12;98510.59;;;18.17;77.56
70458;BME280;57919;56.194;95.716;2023-06-10T12:47:18;98534.59;;;18.15;77.81
70458;BME280;57919;56.194;95.716;2023-06-10T12:57:20;98553.19;;;17.70;78.73
70458;BME280;57919;56.194;95.716;2023-06-10T13:07:22;98567.69;;;17.28;78.95
70458;BME280;57919;56.194;95.716;2023-06-10T13:17:24;98588.16;;;16.81;79.84
70458;BME280;57919;56.194;95.716;2023-06-10T13:27:27;98564.53;;;16.44;79.86
70458;BME280;57919;56.194;95.716;2023-06-10T13:37:29;98587.00;;;16.31;79.77
70458;BME280;57919;56.194;95.716;2023-06-10T13:47:31;98590.69;;;16.38;79.75
70458;BME280;57919;56.194;95.716;2023-06-10T13:57:33;98610.47;;;16.40;79.53
70458;BME280;57919;56.194;95.716;2023-06-10T14:07:35;98630.97;;;16.36;79.43
70458;BME280;57919;56.194;95.716;2023-06-10T14:17:38;98621.00;;;16.58;78.94
70458;BME280;57919;56.194;95.716;2023-06-10T14:27:40;98631.69;;;16.68;78.99
70458;BME280;57919;56.194;95.716;2023-06-10T14:37:42;98611.91;;;16.81;78.91
70458;BME280;57919;56.194;95.716;2023-06-10T14:47:44;98587.47;;;16.94;78.53
70458;BME280;57919;56.194;95.716;2023-06-10T14:57:48;98584.66;;;16.87;78.62
70458;BME280;57919;56.194;95.716;2023-06-10T15:07:51;98615.94;;;16.85;79.04
70458;BME280;57919;56.194;95.716;2023-06-10T15:17:53;98684.38;;;16.54;81.66
70458;BME280;57919;56.194;95.716;2023-06-10T15:27:55;98663.47;;;16.61;80.35
70458;BME280;57919;56.194;95.716;2023-06-10T15:37:59;98656.06;;;16.69;80.08
70458;BME280;57919;56.194;95.716;2023-06-10T15:48:01;98663.44;;;16.69;79.91
70458;BME280;57919;56.194;95.716;2023-06-10T15:58:03;98701.63;;;16.54;80.54
70458;BME280;57919;56.194;95.716;2023-06-10T16:08:05;98670.72;;;16.39;79.38
70458;BME280;57919;56.194;95.716;2023-06-10T16:18:07;98705.13;;;16.25;78.59
70458;BME280;57919;56.194;95.716;2023-06-10T16:28:09;98721.03;;;16.22;77.86
70458;BME280;57919;56.194;95.716;2023-06-10T16:38:11;98732.78;;;16.22;77.69
70458;BME280;57919;56.194;95.716;2023-06-10T16:48:13;98759.16;;;16.30;77.50
70458;BME280;57919;56.194;95.716;2023-06-10T16:58:15;98753.22;;;16.26;77.47
70458;BME280;57919;56.194;95.716;2023-06-10T17:08:17;98708.97;;;16.16;77.49
70458;BME280;57919;56.194;95.716;2023-06-10T17:18:19;98750.00;;;16.00;77.09
70458;BME280;57919;56.194;95.716;2023-06-10T17:28:21;98745.94;;;15.96;76.99
70458;BME280;57919;56.194;95.716;2023-06-10T17:38:23;98756.19;;;15.94;77.19
70458;BME280;57919;56.194;95.716;2023-06-10T17:48:25;98756.25;;;15.86;77.19
70458;BME280;57919;56.194;95.716;2023-06-10T17:58:26;98778.56;;;15.58;76.93
70458;BME280;57919;56.194;95.716;2023-06-10T18:08:28;98802.94;;;15.51;76.85
70458;BME280;57919;56.194;95.716;2023-06-10T18:18:30;98809.97;;;15.38;76.98
70458;BME280;57919;56.194;95.716;2023-06-10T18:28:32;98793.63;;;15.38;76.92
70458;BME280;57919;56.194;95.716;2023-06-10T18:38:34;98752.88;;;15.44;76.90
70458;BME280;57919;56.194;95.716;2023-06-10T18:48:36;98849.31;;;15.43;76.69
70458;BME280;57919;56.194;95.716;2023-06-10T18:58:38;98822.41;;;15.40;76.29
70458;BME280;57919;56.194;95.716;2023-06-10T19:08:40;98835.53;;;15.37;76.47
70458;BME280;57919;56.194;95.716;2023-06-10T19:18:42;98849.31;;;15.35;76.52
70458;BME280;57919;56.194;95.716;2023-06-10T19:28:43;98854.13;;;15.17;76.68
70458;BME280;57919;56.194;95.716;2023-06-10T19:38:46;98872.19;;;15.10;76.87
70458;BME280;57919;56.194;95.716;2023-06-10T19:48:47;98881.22;;;15.10;76.67
70458;BME280;57919;56.194;95.716;2023-06-10T19:58:49;98885.16;;;15.00;76.46
70458;BME280;57919;56.194;95.716;2023-06-10T20:08:51;98900.81;;;14.90;76.72
70458;BME280;57919;56.194;95.716;2023-06-10T20:18:53;98885.84;;;14.85;76.54
70458;BME280;57919;56.194;95.716;2023-06-10T20:28:55;98885.34;;;14.82;76.64
70458;BME280;57919;56.194;95.716;2023-06-10T20:38:57;98885.50;;;14.80;76.48
70458;BME280;57919;56.194;95.716;2023-06-10T20:48:58;98885.50;;;14.72;76.51
70458;BME280;57919;56.194;95.716;2023-06-10T20:59:00;98885.00;;;14.69;76.42
70458;BME280;57919;56.194;95.716;2023-06-10T21:09:02;98890.44;;;14.69;76.47
70458;BME280;57919;56.194;95.716;2023-06-10T21:19:04;98904.06;;;14.61;76.60
70458;BME280;57919;56.194;95.716;2023-06-10T21:29:06;98900.28;;;14.53;76.61
70458;BME280;57919;56.194;95.716;2023-06-10T21:39:08;98928.72;;;14.59;76.39
70458;BME280;57919;56.194;95.716;2023-06-10T21:49:10;98935.88;;;14.68;76.15
70458;BME280;57919;56.194;95.716;2023-06-10T21:59:13;98959.03;;;14.72;76.01
70458;BME280;57919;56.194;95.716;2023-06-10T22:09:15;98944.91;;;14.69;76.08
70458;BME280;57919;56.194;95.716;2023-06-10T22:19:17;98974.00;;;14.84;75.63
70458;BME280;57919;56.194;95.716;2023-06-10T22:29:18;98993.94;;;14.93;75.49
70458;BME280;57919;56.194;95.716;2023-06-10T22:39:20;98985.78;;;14.93;75.11
70458;BME280;57919;56.194;95.716;2023-06-10T22:49:22;98985.75;;;14.85;75.41
70458;BME280;57919;56.194;95.716;2023-06-10T22:59:24;99016.78;;;15.00;75.11
70458;BME280;57919;56.194;95.716;2023-06-10T23:09:26;99039.75;;;15.06;74.69
70458;BME280;57919;56.194;95.716;2023-06-10T23:19:28;99067.19;;;15.12;74.27
70458;BME280;57919;56.194;95.716;2023-06-10T23:29:30;99084.91;;;15.16;74.60
70458;BME280;57919;56.194;95.716;2023-06-10T23:39:32;99088.50;;;15.33;73.79
70458;BME280;57919;56.194;95.716;2023-06-10T23:49:34;99094.78;;;15.26;73.39
70458;BME280;57919;56.194;95.716;2023-06-10T23:59:36;99106.03;;;15.23;73.63
